sensor_id;sensor_type;location;lat;lon;timestamp;P1;durP1;ratioP1;P2;durP2;ratioP2
7029;SDS011;3556;53.500;10.176;2023-07-29T00:00:40;7.40;;;4.67;;
7029;SDS011;3556;53.500;10.176;2023-07-29T00:03:06;6.30;;;4.30;;
7029;SDS011;3556;53.500;10.176;2023-07-29T00:05:32;5.00;;;4.50;;
7029;SDS011;3556;53.500;10.176;2023-07-29T00:07:57;4.67;;;4.13;;
7029;SDS011;3556;53.500;10.176;2023-07-29T00:10:23;4.37;;;3.97;;
7029;SDS011;3556;53.500;10.176;2023-07-29T00:12:48;3.83;;;3.43;;
7029;SDS011;3556;53.500;10.176;2023-07-29T00:15:14;3.67;;;3.37;;
7029;SDS011;3556;53.500;10.176;2023-07-29T00:17:40;4.50;;;4.10;;
7029;SDS011;3556;53.500;10.176;2023-07-29T00:20:06;3.67;;;3.40;;
7029;SDS011;3556;53.500;10.176;2023-07-29T00:22:32;5.03;;;3.90;;
7029;SDS011;3556;53.500;10.176;2023-07-29T00:24:58;4.17;;;3.77;;
7029;SDS011;3556;53.500;10.176;2023-07-29T00:27:24;6.33;;;4.00;;
7029;SDS011;3556;53.500;10.176;2023-07-29T00:29:50;4.03;;;3.70;;
7029;SDS011;3556;53.500;10.176;2023-07-29T00:32:15;3.73;;;3.43;;
7029;SDS011;3556;53.500;10.176;2023-07-29T00:34:41;3.70;;;3.40;;
7029;SDS011;3556;53.500;10.176;2023-07-29T00:37:06;5.50;;;3.80;;
7029;SDS011;3556;53.500;10.176;2023-07-29T00:39:32;4.57;;;3.57;;
7029;SDS011;3556;53.500;10.176;2023-07-29T00:41:58;3.90;;;3.60;;
7029;SDS011;3556;53.500;10.176;2023-07-29T00:44:24;3.53;;;3.23;;
7029;SDS011;3556;53.500;10.176;2023-07-29T00:46:50;3.60;;;3.30;;
7029;SDS011;3556;53.500;10.176;2023-07-29T00:49:18;3.57;;;3.27;;
7029;SDS011;3556;53.500;10.176;2023-07-29T00:51:44;3.70;;;3.40;;
7029;SDS011;3556;53.500;10.176;2023-07-29T00:54:10;3.93;;;3.53;;
7029;SDS011;3556;53.500;10.176;2023-07-29T00:56:36;3.90;;;3.60;;
7029;SDS011;3556;53.500;10.176;2023-07-29T00:59:02;4.63;;;3.90;;
7029;SDS011;3556;53.500;10.176;2023-07-29T01:01:29;4.37;;;3.80;;
7029;SDS011;3556;53.500;10.176;2023-07-29T01:03:56;4.50;;;4.10;;
7029;SDS011;3556;53.500;10.176;2023-07-29T01:09:31;4.83;;;4.33;;
7029;SDS011;3556;53.500;10.176;2023-07-29T01:15:08;4.20;;;3.90;;
7029;SDS011;3556;53.500;10.176;2023-07-29T01:17:46;6.70;;;4.90;;
7029;SDS011;3556;53.500;10.176;2023-07-29T01:20:15;4.53;;;4.00;;
7029;SDS011;3556;53.500;10.176;2023-07-29T01:22:42;5.50;;;5.00;;
7029;SDS011;3556;53.500;10.176;2023-07-29T01:25:08;8.63;;;5.10;;
7029;SDS011;3556;53.500;10.176;2023-07-29T01:27:33;4.90;;;4.43;;
7029;SDS011;3556;53.500;10.176;2023-07-29T01:29:59;5.80;;;5.03;;
7029;SDS011;3556;53.500;10.176;2023-07-29T01:35:15;8.20;;;5.63;;
7029;SDS011;3556;53.500;10.176;2023-07-29T01:38:09;7.60;;;5.10;;
7029;SDS011;3556;53.500;10.176;2023-07-29T01:40:41;7.17;;;6.00;;
7029;SDS011;3556;53.500;10.176;2023-07-29T01:43:08;8.90;;;6.47;;
7029;SDS011;3556;53.500;10.176;2023-07-29T01:45:35;8.37;;;6.47;;
7029;SDS011;3556;53.500;10.176;2023-07-29T01:48:04;11.10;;;7.97;;
7029;SDS011;3556;53.500;10.176;2023-07-29T01:50:30;10.27;;;8.00;;
7029;SDS011;3556;53.500;10.176;2023-07-29T01:52:57;9.73;;;6.80;;
7029;SDS011;3556;53.500;10.176;2023-07-29T01:55:23;10.07;;;7.70;;
7029;SDS011;3556;53.500;10.176;2023-07-29T01:57:48;11.40;;;7.93;;
7029;SDS011;3556;53.500;10.176;2023-07-29T02:00:14;12.60;;;6.50;;
7029;SDS011;3556;53.500;10.176;2023-07-29T02:02:40;9.77;;;6.90;;
7029;SDS011;3556;53.500;10.176;2023-07-29T02:05:06;12.97;;;7.13;;
7029;SDS011;3556;53.500;10.176;2023-07-29T02:07:32;6.63;;;5.20;;
7029;SDS011;3556;53.500;10.176;2023-07-29T02:09:57;8.20;;;6.60;;
7029;SDS011;3556;53.500;10.176;2023-07-29T02:12:23;9.97;;;6.43;;
7029;SDS011;3556;53.500;10.176;2023-07-29T02:14:49;8.40;;;6.23;;
7029;SDS011;3556;53.500;10.176;2023-07-29T02:17:15;7.37;;;5.53;;
7029;SDS011;3556;53.500;10.176;2023-07-29T02:19:40;6.70;;;5.70;;
7029;SDS011;3556;53.500;10.176;2023-07-29T02:22:06;8.80;;;6.10;;
7029;SDS011;3556;53.500;10.176;2023-07-29T02:24:31;8.07;;;6.60;;
7029;SDS011;3556;53.500;10.176;2023-07-29T02:26:57;10.00;;;7.30;;
7029;SDS011;3556;53.500;10.176;2023-07-29T02:29:23;11.90;;;7.57;;
7029;SDS011;3556;53.500;10.176;2023-07-29T02:31:50;10.33;;;7.63;;
7029;SDS011;3556;53.500;10.176;2023-07-29T02:34:15;10.20;;;7.10;;
7029;SDS011;3556;53.500;10.176;2023-07-29T02:36:41;9.03;;;7.63;;
7029;SDS011;3556;53.500;10.176;2023-07-29T02:39:07;11.30;;;7.60;;
7029;SDS011;3556;53.500;10.176;2023-07-29T02:41:32;10.47;;;7.33;;
7029;SDS011;3556;53.500;10.176;2023-07-29T02:43:58;10.57;;;7.60;;
7029;SDS011;3556;53.500;10.176;2023-07-29T02:46:24;8.17;;;6.83;;
7029;SDS011;3556;53.500;10.176;2023-07-29T02:48:50;11.10;;;7.17;;
7029;SDS011;3556;53.500;10.176;2023-07-29T02:51:15;9.70;;;8.00;;
7029;SDS011;3556;53.500;10.176;2023-07-29T02:53:41;9.50;;;7.00;;
7029;SDS011;3556;53.500;10.176;2023-07-29T02:56:07;9.20;;;7.50;;
7029;SDS011;3556;53.500;10.176;2023-07-29T02:58:34;15.23;;;8.43;;
7029;SDS011;3556;53.500;10.176;2023-07-29T03:01:01;13.10;;;7.00;;
7029;SDS011;3556;53.500;10.176;2023-07-29T03:03:30;8.83;;;7.43;;
7029;SDS011;3556;53.500;10.176;2023-07-29T03:06:00;7.93;;;6.70;;
7029;SDS011;3556;53.500;10.176;2023-07-29T03:08:27;8.30;;;6.50;;
7029;SDS011;3556;53.500;10.176;2023-07-29T03:10:53;11.57;;;7.67;;
7029;SDS011;3556;53.500;10.176;2023-07-29T03:13:19;7.50;;;6.20;;
7029;SDS011;3556;53.500;10.176;2023-07-29T03:15:45;8.20;;;6.40;;
7029;SDS011;3556;53.500;10.176;2023-07-29T03:18:10;10.73;;;8.00;;
7029;SDS011;3556;53.500;10.176;2023-07-29T03:20:36;7.33;;;5.97;;
7029;SDS011;3556;53.500;10.176;2023-07-29T03:23:01;11.33;;;8.50;;
7029;SDS011;3556;53.500;10.176;2023-07-29T03:25:27;7.50;;;5.80;;
7029;SDS011;3556;53.500;10.176;2023-07-29T03:27:53;9.30;;;6.90;;
7029;SDS011;3556;53.500;10.176;2023-07-29T03:30:20;8.07;;;6.67;;
7029;SDS011;3556;53.500;10.176;2023-07-29T03:32:46;11.60;;;8.20;;
7029;SDS011;3556;53.500;10.176;2023-07-29T03:35:13;10.87;;;8.40;;
7029;SDS011;3556;53.500;10.176;2023-07-29T03:37:38;10.80;;;7.93;;
7029;SDS011;3556;53.500;10.176;2023-07-29T03:40:05;8.73;;;6.80;;
7029;SDS011;3556;53.500;10.176;2023-07-29T03:42:31;8.80;;;6.50;;
7029;SDS011;3556;53.500;10.176;2023-07-29T03:44:56;8.73;;;7.60;;
7029;SDS011;3556;53.500;10.176;2023-07-29T03:47:22;10.00;;;7.83;;
7029;SDS011;3556;53.500;10.176;2023-07-29T03:49:48;11.03;;;8.33;;
7029;SDS011;3556;53.500;10.176;2023-07-29T03:52:14;11.37;;;8.17;;
7029;SDS011;3556;53.500;10.176;2023-07-29T03:54:39;7.90;;;6.90;;
7029;SDS011;3556;53.500;10.176;2023-07-29T03:57:05;9.03;;;7.37;;
7029;SDS011;3556;53.500;10.176;2023-07-29T03:59:31;11.13;;;8.83;;
7029;SDS011;3556;53.500;10.176;2023-07-29T04:01:57;10.23;;;7.73;;
7029;SDS011;3556;53.500;10.176;2023-07-29T04:04:22;13.90;;;9.00;;
7029;SDS011;3556;53.500;10.176;2023-07-29T04:06:48;9.67;;;7.50;;
7029;SDS011;3556;53.500;10.176;2023-07-29T04:09:14;14.00;;;8.20;;
7029;SDS011;3556;53.500;10.176;2023-07-29T04:11:39;10.30;;;8.07;;
7029;SDS011;3556;53.500;10.176;2023-07-29T04:14:05;12.33;;;8.80;;
7029;SDS011;3556;53.500;10.176;2023-07-29T04:16:30;11.10;;;8.30;;
7029;SDS011;3556;53.500;10.176;2023-07-29T04:18:56;12.37;;;9.00;;
7029;SDS011;3556;53.500;10.176;2023-07-29T04:21:21;11.17;;;8.60;;
7029;SDS011;3556;53.500;10.176;2023-07-29T04:23:47;11.17;;;8.90;;
7029;SDS011;3556;53.500;10.176;2023-07-29T04:26:13;14.10;;;10.07;;
7029;SDS011;3556;53.500;10.176;2023-07-29T04:28:38;14.90;;;10.20;;
7029;SDS011;3556;53.500;10.176;2023-07-29T04:31:04;16.93;;;10.90;;
7029;SDS011;3556;53.500;10.176;2023-07-29T04:33:29;15.20;;;10.10;;
7029;SDS011;3556;53.500;10.176;2023-07-29T04:35:56;16.63;;;10.27;;
7029;SDS011;3556;53.500;10.176;2023-07-29T04:38:21;12.73;;;8.90;;
7029;SDS011;3556;53.500;10.176;2023-07-29T04:40:50;18.90;;;11.13;;
7029;SDS011;3556;53.500;10.176;2023-07-29T04:43:15;15.53;;;9.47;;
7029;SDS011;3556;53.500;10.176;2023-07-29T04:45:44;19.70;;;10.40;;
7029;SDS011;3556;53.500;10.176;2023-07-29T04:48:10;13.70;;;10.17;;
7029;SDS011;3556;53.500;10.176;2023-07-29T04:50:36;12.07;;;8.93;;
7029;SDS011;3556;53.500;10.176;2023-07-29T04:53:01;17.10;;;10.20;;
7029;SDS011;3556;53.500;10.176;2023-07-29T04:55:27;15.27;;;10.37;;
7029;SDS011;3556;53.500;10.176;2023-07-29T04:57:53;20.50;;;10.83;;
7029;SDS011;3556;53.500;10.176;2023-07-29T05:00:18;14.60;;;10.40;;
7029;SDS011;3556;53.500;10.176;2023-07-29T05:02:44;16.90;;;11.03;;
7029;SDS011;3556;53.500;10.176;2023-07-29T05:05:09;16.00;;;11.50;;
7029;SDS011;3556;53.500;10.176;2023-07-29T05:07:35;19.50;;;12.57;;
7029;SDS011;3556;53.500;10.176;2023-07-29T05:10:01;21.30;;;13.30;;
7029;SDS011;3556;53.500;10.176;2023-07-29T05:12:26;18.30;;;11.83;;
7029;SDS011;3556;53.500;10.176;2023-07-29T05:14:52;26.20;;;13.90;;
7029;SDS011;3556;53.500;10.176;2023-07-29T05:17:17;28.97;;;15.47;;
7029;SDS011;3556;53.500;10.176;2023-07-29T05:19:43;26.23;;;15.13;;
7029;SDS011;3556;53.500;10.176;2023-07-29T05:22:09;25.80;;;15.40;;
7029;SDS011;3556;53.500;10.176;2023-07-29T05:24:35;31.07;;;17.37;;
7029;SDS011;3556;53.500;10.176;2023-07-29T05:27:01;28.97;;;15.70;;
7029;SDS011;3556;53.500;10.176;2023-07-29T05:29:26;28.70;;;16.70;;
7029;SDS011;3556;53.500;10.176;2023-07-29T05:31:52;30.30;;;17.87;;
7029;SDS011;3556;53.500;10.176;2023-07-29T05:34:18;29.10;;;16.93;;
7029;SDS011;3556;53.500;10.176;2023-07-29T05:36:43;29.83;;;17.03;;
7029;SDS011;3556;53.500;10.176;2023-07-29T05:39:09;34.67;;;18.70;;
7029;SDS011;3556;53.500;10.176;2023-07-29T05:41:35;36.40;;;20.03;;
7029;SDS011;3556;53.500;10.176;2023-07-29T05:44:00;33.10;;;18.57;;
7029;SDS011;3556;53.500;10.176;2023-07-29T05:46:26;30.43;;;16.47;;
7029;SDS011;3556;53.500;10.176;2023-07-29T05:48:52;30.50;;;17.97;;
7029;SDS011;3556;53.500;10.176;2023-07-29T05:51:20;29.90;;;17.87;;
7029;SDS011;3556;53.500;10.176;2023-07-29T05:53:46;27.67;;;16.70;;
7029;SDS011;3556;53.500;10.176;2023-07-29T05:56:14;35.33;;;19.13;;
7029;SDS011;3556;53.500;10.176;2023-07-29T05:58:40;35.37;;;19.73;;
7029;SDS011;3556;53.500;10.176;2023-07-29T06:01:05;32.13;;;19.70;;
7029;SDS011;3556;53.500;10.176;2023-07-29T06:03:31;34.53;;;19.50;;
7029;SDS011;3556;53.500;10.176;2023-07-29T06:05:56;33.37;;;19.23;;
7029;SDS011;3556;53.500;10.176;2023-07-29T06:08:22;30.97;;;19.70;;
7029;SDS011;3556;53.500;10.176;2023-07-29T06:10:48;31.57;;;18.97;;
7029;SDS011;3556;53.500;10.176;2023-07-29T06:13:13;33.30;;;18.77;;
7029;SDS011;3556;53.500;10.176;2023-07-29T06:15:39;30.50;;;17.47;;
7029;SDS011;3556;53.500;10.176;2023-07-29T06:18:04;30.03;;;17.47;;
7029;SDS011;3556;53.500;10.176;2023-07-29T06:20:30;29.30;;;18.03;;
7029;SDS011;3556;53.500;10.176;2023-07-29T06:22:56;28.53;;;17.07;;
7029;SDS011;3556;53.500;10.176;2023-07-29T06:25:21;29.63;;;18.67;;
7029;SDS011;3556;53.500;10.176;2023-07-29T06:27:47;29.87;;;18.07;;
7029;SDS011;3556;53.500;10.176;2023-07-29T06:30:13;31.33;;;18.70;;
7029;SDS011;3556;53.500;10.176;2023-07-29T06:32:38;29.23;;;18.20;;
7029;SDS011;3556;53.500;10.176;2023-07-29T06:35:04;30.73;;;18.77;;
7029;SDS011;3556;53.500;10.176;2023-07-29T06:37:30;32.80;;;19.07;;
7029;SDS011;3556;53.500;10.176;2023-07-29T06:39:56;30.00;;;17.90;;
7029;SDS011;3556;53.500;10.176;2023-07-29T06:42:21;22.00;;;15.27;;
7029;SDS011;3556;53.500;10.176;2023-07-29T06:44:47;28.63;;;18.13;;
7029;SDS011;3556;53.500;10.176;2023-07-29T06:47:12;33.20;;;19.17;;
7029;SDS011;3556;53.500;10.176;2023-07-29T06:49:38;24.87;;;16.40;;
7029;SDS011;3556;53.500;10.176;2023-07-29T06:52:04;28.20;;;16.97;;
7029;SDS011;3556;53.500;10.176;2023-07-29T06:54:29;23.23;;;16.27;;
7029;SDS011;3556;53.500;10.176;2023-07-29T06:56:55;31.23;;;18.23;;
7029;SDS011;3556;53.500;10.176;2023-07-29T06:59:20;24.77;;;15.07;;
7029;SDS011;3556;53.500;10.176;2023-07-29T07:01:46;28.00;;;18.10;;
7029;SDS011;3556;53.500;10.176;2023-07-29T07:04:12;29.63;;;16.57;;
7029;SDS011;3556;53.500;10.176;2023-07-29T07:06:37;29.50;;;17.77;;
7029;SDS011;3556;53.500;10.176;2023-07-29T07:09:03;27.93;;;16.30;;
7029;SDS011;3556;53.500;10.176;2023-07-29T07:11:29;23.50;;;15.60;;
7029;SDS011;3556;53.500;10.176;2023-07-29T07:13:54;23.50;;;13.90;;
7029;SDS011;3556;53.500;10.176;2023-07-29T07:16:20;24.50;;;14.03;;
7029;SDS011;3556;53.500;10.176;2023-07-29T07:18:45;19.80;;;12.57;;
7029;SDS011;3556;53.500;10.176;2023-07-29T07:21:11;18.10;;;12.87;;
7029;SDS011;3556;53.500;10.176;2023-07-29T07:23:38;18.90;;;11.97;;
7029;SDS011;3556;53.500;10.176;2023-07-29T07:26:04;17.93;;;11.20;;
7029;SDS011;3556;53.500;10.176;2023-07-29T07:28:29;15.10;;;10.47;;
7029;SDS011;3556;53.500;10.176;2023-07-29T07:30:55;16.13;;;11.90;;
7029;SDS011;3556;53.500;10.176;2023-07-29T07:33:21;18.60;;;11.17;;
7029;SDS011;3556;53.500;10.176;2023-07-29T07:35:47;14.80;;;10.77;;
7029;SDS011;3556;53.500;10.176;2023-07-29T07:38:13;15.07;;;10.40;;
7029;SDS011;3556;53.500;10.176;2023-07-29T07:40:38;14.60;;;10.60;;
7029;SDS011;3556;53.500;10.176;2023-07-29T07:43:07;13.83;;;9.70;;
7029;SDS011;3556;53.500;10.176;2023-07-29T07:45:33;17.47;;;9.43;;
7029;SDS011;3556;53.500;10.176;2023-07-29T07:47:58;13.93;;;9.70;;
7029;SDS011;3556;53.500;10.176;2023-07-29T07:50:24;13.43;;;8.90;;
7029;SDS011;3556;53.500;10.176;2023-07-29T07:52:50;19.30;;;9.27;;
7029;SDS011;3556;53.500;10.176;2023-07-29T07:55:15;13.07;;;9.83;;
7029;SDS011;3556;53.500;10.176;2023-07-29T07:57:41;12.30;;;8.87;;
7029;SDS011;3556;53.500;10.176;2023-07-29T08:00:06;10.80;;;8.67;;
7029;SDS011;3556;53.500;10.176;2023-07-29T08:02:32;10.77;;;8.30;;
7029;SDS011;3556;53.500;10.176;2023-07-29T08:04:58;11.70;;;8.27;;
7029;SDS011;3556;53.500;10.176;2023-07-29T08:07:24;10.73;;;8.27;;
7029;SDS011;3556;53.500;10.176;2023-07-29T08:09:49;10.13;;;8.37;;
7029;SDS011;3556;53.500;10.176;2023-07-29T08:12:15;10.53;;;8.07;;
7029;SDS011;3556;53.500;10.176;2023-07-29T08:14:41;11.40;;;6.90;;
7029;SDS011;3556;53.500;10.176;2023-07-29T08:17:06;13.33;;;8.30;;
7029;SDS011;3556;53.500;10.176;2023-07-29T08:19:32;10.13;;;8.50;;
7029;SDS011;3556;53.500;10.176;2023-07-29T08:22:01;8.77;;;7.07;;
7029;SDS011;3556;53.500;10.176;2023-07-29T08:24:28;10.13;;;8.27;;
7029;SDS011;3556;53.500;10.176;2023-07-29T08:26:53;8.20;;;7.40;;
7029;SDS011;3556;53.500;10.176;2023-07-29T08:29:19;8.60;;;7.30;;
7029;SDS011;3556;53.500;10.176;2023-07-29T08:31:44;11.30;;;7.80;;
7029;SDS011;3556;53.500;10.176;2023-07-29T08:34:10;8.47;;;7.60;;
7029;SDS011;3556;53.500;10.176;2023-07-29T08:36:35;12.47;;;7.80;;
7029;SDS011;3556;53.500;10.176;2023-07-29T08:39:01;9.60;;;8.00;;
7029;SDS011;3556;53.500;10.176;2023-07-29T08:41:32;8.67;;;7.83;;
7029;SDS011;3556;53.500;10.176;2023-07-29T08:44:27;8.23;;;6.93;;
7029;SDS011;3556;53.500;10.176;2023-07-29T08:47:00;9.93;;;7.80;;
7029;SDS011;3556;53.500;10.176;2023-07-29T08:49:26;8.10;;;6.57;;
7029;SDS011;3556;53.500;10.176;2023-07-29T08:51:53;8.77;;;7.43;;
7029;SDS011;3556;53.500;10.176;2023-07-29T08:54:19;7.97;;;7.17;;
7029;SDS011;3556;53.500;10.176;2023-07-29T08:56:45;12.03;;;6.77;;
7029;SDS011;3556;53.500;10.176;2023-07-29T08:59:11;9.37;;;7.83;;
7029;SDS011;3556;53.500;10.176;2023-07-29T09:01:38;8.00;;;7.20;;
7029;SDS011;3556;53.500;10.176;2023-07-29T09:04:04;8.67;;;6.93;;
7029;SDS011;3556;53.500;10.176;2023-07-29T09:06:31;9.33;;;7.67;;
7029;SDS011;3556;53.500;10.176;2023-07-29T09:08:58;8.70;;;7.00;;
7029;SDS011;3556;53.500;10.176;2023-07-29T09:11:24;9.47;;;7.57;;
7029;SDS011;3556;53.500;10.176;2023-07-29T09:13:50;8.60;;;7.40;;
7029;SDS011;3556;53.500;10.176;2023-07-29T09:16:16;8.40;;;7.10;;
7029;SDS011;3556;53.500;10.176;2023-07-29T09:18:41;8.40;;;7.60;;
7029;SDS011;3556;53.500;10.176;2023-07-29T09:21:07;8.53;;;7.53;;
7029;SDS011;3556;53.500;10.176;2023-07-29T09:23:40;9.53;;;7.70;;
7029;SDS011;3556;53.500;10.176;2023-07-29T09:26:10;8.87;;;7.87;;
7029;SDS011;3556;53.500;10.176;2023-07-29T09:28:37;12.20;;;7.97;;
7029;SDS011;3556;53.500;10.176;2023-07-29T09:31:03;14.77;;;8.53;;
7029;SDS011;3556;53.500;10.176;2023-07-29T09:33:30;9.60;;;8.60;;
7029;SDS011;3556;53.500;10.176;2023-07-29T09:36:01;10.27;;;8.13;;
7029;SDS011;3556;53.500;10.176;2023-07-29T09:38:33;9.97;;;7.37;;
7029;SDS011;3556;53.500;10.176;2023-07-29T09:41:00;10.07;;;7.73;;
7029;SDS011;3556;53.500;10.176;2023-07-29T09:43:30;9.70;;;8.40;;
7029;SDS011;3556;53.500;10.176;2023-07-29T09:46:03;10.07;;;7.37;;
7029;SDS011;3556;53.500;10.176;2023-07-29T09:48:35;11.70;;;8.60;;
7029;SDS011;3556;53.500;10.176;2023-07-29T09:51:11;9.13;;;7.97;;
7029;SDS011;3556;53.500;10.176;2023-07-29T09:53:44;11.07;;;8.30;;
7029;SDS011;3556;53.500;10.176;2023-07-29T09:56:12;8.93;;;7.77;;
7029;SDS011;3556;53.500;10.176;2023-07-29T09:58:38;12.17;;;7.30;;
7029;SDS011;3556;53.500;10.176;2023-07-29T10:01:05;8.70;;;7.07;;
7029;SDS011;3556;53.500;10.176;2023-07-29T10:03:31;9.80;;;7.40;;
7029;SDS011;3556;53.500;10.176;2023-07-29T10:06:02;8.23;;;6.87;;
7029;SDS011;3556;53.500;10.176;2023-07-29T10:08:31;8.37;;;6.40;;
7029;SDS011;3556;53.500;10.176;2023-07-29T10:11:00;10.23;;;7.30;;
7029;SDS011;3556;53.500;10.176;2023-07-29T10:13:27;7.70;;;6.20;;
7029;SDS011;3556;53.500;10.176;2023-07-29T10:15:53;6.53;;;5.93;;
7029;SDS011;3556;53.500;10.176;2023-07-29T10:18:22;8.90;;;6.23;;
7029;SDS011;3556;53.500;10.176;2023-07-29T10:20:51;8.23;;;6.10;;
7029;SDS011;3556;53.500;10.176;2023-07-29T10:23:19;6.33;;;5.73;;
7029;SDS011;3556;53.500;10.176;2023-07-29T10:25:49;7.33;;;5.53;;
7029;SDS011;3556;53.500;10.176;2023-07-29T10:28:20;8.67;;;5.53;;
7029;SDS011;3556;53.500;10.176;2023-07-29T10:30:50;6.60;;;5.30;;
7029;SDS011;3556;53.500;10.176;2023-07-29T10:33:16;6.13;;;5.53;;
7029;SDS011;3556;53.500;10.176;2023-07-29T10:35:42;5.27;;;4.77;;
7029;SDS011;3556;53.500;10.176;2023-07-29T10:38:08;4.33;;;4.03;;
7029;SDS011;3556;53.500;10.176;2023-07-29T10:40:45;5.27;;;4.77;;
7029;SDS011;3556;53.500;10.176;2023-07-29T10:45:57;4.70;;;4.30;;
7029;SDS011;3556;53.500;10.176;2023-07-29T10:48:40;5.70;;;4.77;;
7029;SDS011;3556;53.500;10.176;2023-07-29T10:51:21;4.67;;;4.30;;
7029;SDS011;3556;53.500;10.176;2023-07-29T10:54:01;4.77;;;4.37;;
7029;SDS011;3556;53.500;10.176;2023-07-29T10:56:32;7.57;;;5.10;;
7029;SDS011;3556;53.500;10.176;2023-07-29T10:59:03;4.87;;;4.47;;
7029;SDS011;3556;53.500;10.176;2023-07-29T11:01:56;4.70;;;4.30;;
7029;SDS011;3556;53.500;10.176;2023-07-29T11:04:23;4.83;;;4.43;;
7029;SDS011;3556;53.500;10.176;2023-07-29T11:15:28;3.30;;;3.03;;
7029;SDS011;3556;53.500;10.176;2023-07-29T11:17:57;5.30;;;3.33;;
7029;SDS011;3556;53.500;10.176;2023-07-29T11:22:58;3.00;;;2.80;;
7029;SDS011;3556;53.500;10.176;2023-07-29T11:25:26;3.77;;;2.90;;
7029;SDS011;3556;53.500;10.176;2023-07-29T11:27:54;3.20;;;3.00;;
7029;SDS011;3556;53.500;10.176;2023-07-29T11:30:21;3.73;;;3.53;;
7029;SDS011;3556;53.500;10.176;2023-07-29T11:32:48;3.20;;;2.97;;
7029;SDS011;3556;53.500;10.176;2023-07-29T11:35:18;3.23;;;3.03;;
7029;SDS011;3556;53.500;10.176;2023-07-29T11:37:44;3.43;;;3.23;;
7029;SDS011;3556;53.500;10.176;2023-07-29T11:40:18;4.47;;;3.13;;
7029;SDS011;3556;53.500;10.176;2023-07-29T11:42:46;4.87;;;3.40;;
7029;SDS011;3556;53.500;10.176;2023-07-29T11:45:13;3.37;;;3.17;;
7029;SDS011;3556;53.500;10.176;2023-07-29T11:47:39;3.93;;;3.20;;
7029;SDS011;3556;53.500;10.176;2023-07-29T11:50:09;3.47;;;3.27;;
7029;SDS011;3556;53.500;10.176;2023-07-29T11:52:41;3.60;;;3.40;;
7029;SDS011;3556;53.500;10.176;2023-07-29T11:55:11;5.60;;;3.33;;
7029;SDS011;3556;53.500;10.176;2023-07-29T11:57:38;3.90;;;3.60;;
7029;SDS011;3556;53.500;10.176;2023-07-29T12:00:07;4.40;;;4.00;;
7029;SDS011;3556;53.500;10.176;2023-07-29T12:02:36;3.67;;;3.47;;
7029;SDS011;3556;53.500;10.176;2023-07-29T12:05:07;4.27;;;3.97;;
7029;SDS011;3556;53.500;10.176;2023-07-29T12:07:34;3.63;;;3.43;;
7029;SDS011;3556;53.500;10.176;2023-07-29T12:10:00;3.97;;;3.67;;
7029;SDS011;3556;53.500;10.176;2023-07-29T12:12:28;4.23;;;3.90;;
7029;SDS011;3556;53.500;10.176;2023-07-29T12:14:54;4.20;;;3.90;;
7029;SDS011;3556;53.500;10.176;2023-07-29T12:17:20;4.03;;;3.63;;
7029;SDS011;3556;53.500;10.176;2023-07-29T12:19:46;4.73;;;4.33;;
7029;SDS011;3556;53.500;10.176;2023-07-29T12:22:11;4.40;;;4.10;;
7029;SDS011;3556;53.500;10.176;2023-07-29T12:24:42;6.90;;;4.50;;
7029;SDS011;3556;53.500;10.176;2023-07-29T12:27:11;4.30;;;4.00;;
7029;SDS011;3556;53.500;10.176;2023-07-29T12:29:41;4.43;;;4.03;;
7029;SDS011;3556;53.500;10.176;2023-07-29T12:32:08;4.50;;;4.10;;
7029;SDS011;3556;53.500;10.176;2023-07-29T12:34:34;5.17;;;4.23;;
7029;SDS011;3556;53.500;10.176;2023-07-29T12:37:02;4.40;;;4.10;;
7029;SDS011;3556;53.500;10.176;2023-07-29T12:39:28;3.80;;;3.50;;
7029;SDS011;3556;53.500;10.176;2023-07-29T12:41:57;5.87;;;3.67;;
7029;SDS011;3556;53.500;10.176;2023-07-29T12:44:24;5.73;;;4.20;;
7029;SDS011;3556;53.500;10.176;2023-07-29T12:46:51;3.73;;;3.53;;
7029;SDS011;3556;53.500;10.176;2023-07-29T12:49:17;3.43;;;3.20;;
7029;SDS011;3556;53.500;10.176;2023-07-29T12:51:43;3.37;;;3.17;;
7029;SDS011;3556;53.500;10.176;2023-07-29T12:54:09;3.47;;;3.17;;
7029;SDS011;3556;53.500;10.176;2023-07-29T12:56:35;3.53;;;2.63;;
7029;SDS011;3556;53.500;10.176;2023-07-29T12:59:01;3.00;;;2.67;;
7029;SDS011;3556;53.500;10.176;2023-07-29T13:01:27;3.17;;;2.97;;
7029;SDS011;3556;53.500;10.176;2023-07-29T13:03:53;2.70;;;2.50;;
7029;SDS011;3556;53.500;10.176;2023-07-29T13:06:19;2.77;;;2.50;;
7029;SDS011;3556;53.500;10.176;2023-07-29T13:08:45;2.67;;;2.57;;
7029;SDS011;3556;53.500;10.176;2023-07-29T13:11:11;3.13;;;2.60;;
7029;SDS011;3556;53.500;10.176;2023-07-29T13:13:37;5.93;;;2.90;;
7029;SDS011;3556;53.500;10.176;2023-07-29T13:16:03;2.57;;;2.47;;
7029;SDS011;3556;53.500;10.176;2023-07-29T13:18:29;2.73;;;2.63;;
7029;SDS011;3556;53.500;10.176;2023-07-29T13:20:55;3.03;;;2.70;;
7029;SDS011;3556;53.500;10.176;2023-07-29T13:23:20;3.10;;;2.53;;
7029;SDS011;3556;53.500;10.176;2023-07-29T13:25:46;2.70;;;2.50;;
7029;SDS011;3556;53.500;10.176;2023-07-29T13:28:12;2.53;;;2.30;;
7029;SDS011;3556;53.500;10.176;2023-07-29T13:30:39;3.10;;;2.60;;
7029;SDS011;3556;53.500;10.176;2023-07-29T13:33:06;2.80;;;2.60;;
7029;SDS011;3556;53.500;10.176;2023-07-29T13:35:32;2.90;;;2.80;;
7029;SDS011;3556;53.500;10.176;2023-07-29T13:37:57;2.80;;;2.60;;
7029;SDS011;3556;53.500;10.176;2023-07-29T13:40:23;3.00;;;2.80;;
7029;SDS011;3556;53.500;10.176;2023-07-29T13:42:49;3.00;;;2.70;;
7029;SDS011;3556;53.500;10.176;2023-07-29T13:45:14;2.47;;;2.37;;
7029;SDS011;3556;53.500;10.176;2023-07-29T13:47:40;2.93;;;2.73;;
7029;SDS011;3556;53.500;10.176;2023-07-29T13:50:06;3.03;;;2.73;;
7029;SDS011;3556;53.500;10.176;2023-07-29T13:52:35;3.67;;;3.13;;
7029;SDS011;3556;53.500;10.176;2023-07-29T13:55:01;3.23;;;3.03;;
7029;SDS011;3556;53.500;10.176;2023-07-29T13:57:28;3.80;;;3.60;;
7029;SDS011;3556;53.500;10.176;2023-07-29T13:59:53;3.00;;;2.90;;
7029;SDS011;3556;53.500;10.176;2023-07-29T14:02:19;3.20;;;2.97;;
7029;SDS011;3556;53.500;10.176;2023-07-29T14:04:44;3.00;;;2.80;;
7029;SDS011;3556;53.500;10.176;2023-07-29T14:07:10;4.10;;;2.77;;
7029;SDS011;3556;53.500;10.176;2023-07-29T14:09:36;3.47;;;3.23;;
7029;SDS011;3556;53.500;10.176;2023-07-29T14:12:03;3.40;;;3.10;;
7029;SDS011;3556;53.500;10.176;2023-07-29T14:14:29;2.83;;;2.70;;
7029;SDS011;3556;53.500;10.176;2023-07-29T14:16:55;3.77;;;3.50;;
7029;SDS011;3556;53.500;10.176;2023-07-29T14:19:20;3.23;;;3.03;;
7029;SDS011;3556;53.500;10.176;2023-07-29T14:21:46;3.57;;;3.37;;
7029;SDS011;3556;53.500;10.176;2023-07-29T14:24:11;3.17;;;2.87;;
7029;SDS011;3556;53.500;10.176;2023-07-29T14:26:37;3.40;;;3.10;;
7029;SDS011;3556;53.500;10.176;2023-07-29T14:29:03;2.77;;;2.57;;
7029;SDS011;3556;53.500;10.176;2023-07-29T14:31:28;2.70;;;2.50;;
7029;SDS011;3556;53.500;10.176;2023-07-29T14:33:54;2.63;;;2.53;;
7029;SDS011;3556;53.500;10.176;2023-07-29T14:36:20;2.67;;;2.47;;
7029;SDS011;3556;53.500;10.176;2023-07-29T14:38:45;2.30;;;2.20;;
7029;SDS011;3556;53.500;10.176;2023-07-29T14:41:11;2.40;;;2.30;;
7029;SDS011;3556;53.500;10.176;2023-07-29T14:43:36;6.70;;;2.97;;
7029;SDS011;3556;53.500;10.176;2023-07-29T14:46:02;2.60;;;2.40;;
7029;SDS011;3556;53.500;10.176;2023-07-29T14:48:28;3.60;;;2.10;;
7029;SDS011;3556;53.500;10.176;2023-07-29T14:50:54;2.50;;;2.30;;
7029;SDS011;3556;53.500;10.176;2023-07-29T14:53:20;2.40;;;2.20;;
7029;SDS011;3556;53.500;10.176;2023-07-29T14:55:45;4.47;;;2.17;;
7029;SDS011;3556;53.500;10.176;2023-07-29T14:58:11;2.30;;;2.10;;
7029;SDS011;3556;53.500;10.176;2023-07-29T15:00:37;2.40;;;2.20;;
7029;SDS011;3556;53.500;10.176;2023-07-29T15:03:02;2.43;;;2.23;;
7029;SDS011;3556;53.500;10.176;2023-07-29T15:05:28;1.90;;;1.80;;
7029;SDS011;3556;53.500;10.176;2023-07-29T15:07:54;4.03;;;2.20;;
7029;SDS011;3556;53.500;10.176;2023-07-29T15:10:19;2.90;;;2.00;;
7029;SDS011;3556;53.500;10.176;2023-07-29T15:12:46;2.07;;;1.60;;